Other Surface Observations
Issued by NWS Great Falls, MT

Home | Current Version | Previous Version | Text Only | Print | Product List | Glossary On
Versions: 1 2 3 4 5 6 7 8 9 10 11 12 13 14 15 16 17 18 19 20 21 22 23 24 25 26 27 28 29 30 31 32 33 34 35 36 37 38 39 40 41 42 43 44 45 46 47 48 49 50
000
SXUS55 KTFX 170545
OSOTFX
AREA AWOS OBSERVATIONS
NATIONAL WEATHER SERVICE GREAT FALLS MT
1044 PM MST SAT FEB 16 2019

METAR KPO1 170545Z AUTO 36008KT M14/M17 A3001 RMK POPLAR
METAR K1S3 170545Z AUTO 32006KT 3/4SM M15/M18 A3001 RMK FORSYTH
METAR KS71 170545Z AUTO 27011KT 10SM M20/M24 A3011 RMK CHINOOK
METAR K38S 170545Z AUTO 32012KT 2SM M11/M13 A2977 RMK DEER LODGE
METAR K3U3 170545Z AUTO 03006KT 2 1/2SM M09/M11 A2973 RMK ANACONDA


USA.gov is the U.S. government's official web portal to all federal, state and local government web resources and services.